Weather

Webcam

Metar / TAF

Zurich

  • LSZH 182320Z VRB03KT 9999 SCT031 M01/M02 Q1026 R88/19//// NOSIG

  • TAF LSZH 182025Z 1821/2003 VRB03KT 9999 SCT030 BKN050 TX04/1914Z TNM04/1905Z BECMG 1821/1824 4500 MIFG NSC TEMPO 1900/1909 2500 BCFG PROB40 TEMPO 1900/1908 0800 FZFG VV001 BECMG 1908/1911 CAVOK

Dübendorf

  • LSMD 182320Z AUTO 13004KT 9999NDV FEW033 SCT110 M02/M04 Q1026 RMK

  • TAF LSMD 181625Z 1817/1923 27005KT 9999 SCT030 BKN050 BECMG 1817/1819 VRB03KT 4500 MIFG NSC BECMG 1819/1821 2500 BCFG TEMPO 1821/1908 0800 FZFG VV001 BECMG 1908/1911 CAVOK

St. Gallen

  • LSZR 182320Z AUTO VRB03KT 9999 NCD M01/M02 Q1025

  • TAF AMD LSZR 222054Z 2220/2224 CNL

Bern

  • LSZB 182320Z AUTO 11006KT 9999 BKN021 M02/M03 Q1025

  • TAF AMD TAF AMD LSZB 222054Z 2220/2224 CNL

Locarno

  • LSZL 182320Z AUTO VRB02KT 9999NDV NCD 00/M05 Q1025 RMK

  • TAF AMD TAF AMD LSZL 150713Z 1509/1521 VRB03KT 9999 SCT050

Samedan

  • LSZS 182320Z AUTO VRB03KT 9999 OVC050 M17/M19 Q1021

  • TAF AMD LSZS 222054Z 2220/2224 CNL

Geneve

  • LSGG 182320Z AUTO 27002KT 6000 NCD M03/M03 Q1026 BECMG 4000 BR NSC

  • TAF TAF LSGG 182025Z 1821/2003 VRB02KT CAVOK TX05/1915Z TNM05/1906Z PROB30 TEMPO 1903/1909 0600 FZFG VV003 PROB30 TEMPO 1912/1918 24008KT

Weather-Charts



Wind at FL50: 06:00z, 09:00z, 12:00z, 15:00z and 18:00z